sensor_id;sensor_type;location;lat;lon;timestamp;temperature;humidity
10051;DHT22;5065;46.942;7.432;2023-06-22T00:01:13;25.60;99.90
10051;DHT22;5065;46.942;7.432;2023-06-22T00:03:40;25.60;99.90
10051;DHT22;5065;46.942;7.432;2023-06-22T00:06:07;25.60;99.90
10051;DHT22;5065;46.942;7.432;2023-06-22T00:08:35;25.50;99.90
10051;DHT22;5065;46.942;7.432;2023-06-22T00:11:03;25.50;99.90
10051;DHT22;5065;46.942;7.432;2023-06-22T00:13:30;25.50;99.90
10051;DHT22;5065;46.942;7.432;2023-06-22T00:15:57;25.50;99.90
10051;DHT22;5065;46.942;7.432;2023-06-22T00:18:24;25.40;99.90
10051;DHT22;5065;46.942;7.432;2023-06-22T00:20:54;25.50;99.90
10051;DHT22;5065;46.942;7.432;2023-06-22T00:23:23;25.40;99.90
10051;DHT22;5065;46.942;7.432;2023-06-22T00:25:51;25.40;99.90
10051;DHT22;5065;46.942;7.432;2023-06-22T00:28:20;25.30;99.90
10051;DHT22;5065;46.942;7.432;2023-06-22T00:30:48;25.10;99.90
10051;DHT22;5065;46.942;7.432;2023-06-22T00:33:15;25.10;99.90
10051;DHT22;5065;46.942;7.432;2023-06-22T00:35:43;25.10;99.90
10051;DHT22;5065;46.942;7.432;2023-06-22T00:38:10;25.00;99.90
10051;DHT22;5065;46.942;7.432;2023-06-22T00:40:37;25.00;99.90
10051;DHT22;5065;46.942;7.432;2023-06-22T00:43:05;24.90;99.90
10051;DHT22;5065;46.942;7.432;2023-06-22T00:45:33;24.80;99.90
10051;DHT22;5065;46.942;7.432;2023-06-22T00:48:01;24.80;99.90
10051;DHT22;5065;46.942;7.432;2023-06-22T00:50:31;24.80;99.90
10051;DHT22;5065;46.942;7.432;2023-06-22T00:53:03;24.70;99.90
10051;DHT22;5065;46.942;7.432;2023-06-22T00:55:33;24.70;99.90
10051;DHT22;5065;46.942;7.432;2023-06-22T00:58:03;24.70;99.90
10051;DHT22;5065;46.942;7.432;2023-06-22T01:00:35;24.70;99.90
10051;DHT22;5065;46.942;7.432;2023-06-22T01:03:02;24.50;99.90
10051;DHT22;5065;46.942;7.432;2023-06-22T01:05:29;24.50;99.90
10051;DHT22;5065;46.942;7.432;2023-06-22T01:08:08;24.50;99.90
10051;DHT22;5065;46.942;7.432;2023-06-22T01:10:43;24.50;99.90
10051;DHT22;5065;46.942;7.432;2023-06-22T01:13:18;24.50;99.90
10051;DHT22;5065;46.942;7.432;2023-06-22T01:15:53;24.40;99.90
10051;DHT22;5065;46.942;7.432;2023-06-22T01:18:23;24.40;99.90
10051;DHT22;5065;46.942;7.432;2023-06-22T01:20:52;24.20;99.90
10051;DHT22;5065;46.942;7.432;2023-06-22T01:23:27;24.20;99.90
10051;DHT22;5065;46.942;7.432;2023-06-22T01:26:02;24.20;99.90
10051;DHT22;5065;46.942;7.432;2023-06-22T01:28:45;24.10;99.90
10051;DHT22;5065;46.942;7.432;2023-06-22T01:31:16;24.10;99.90
10051;DHT22;5065;46.942;7.432;2023-06-22T01:33:45;24.10;99.90
10051;DHT22;5065;46.942;7.432;2023-06-22T01:36:14;24.10;99.90
10051;DHT22;5065;46.942;7.432;2023-06-22T01:38:44;24.10;99.90
10051;DHT22;5065;46.942;7.432;2023-06-22T01:41:12;24.10;99.90
10051;DHT22;5065;46.942;7.432;2023-06-22T01:43:40;24.10;99.90
10051;DHT22;5065;46.942;7.432;2023-06-22T01:46:08;24.00;99.90
10051;DHT22;5065;46.942;7.432;2023-06-22T01:48:35;23.90;99.90
10051;DHT22;5065;46.942;7.432;2023-06-22T01:51:02;23.70;99.90
10051;DHT22;5065;46.942;7.432;2023-06-22T01:53:29;23.60;99.90
10051;DHT22;5065;46.942;7.432;2023-06-22T01:55:56;23.60;99.90
10051;DHT22;5065;46.942;7.432;2023-06-22T01:58:24;23.60;99.90
10051;DHT22;5065;46.942;7.432;2023-06-22T02:00:56;23.50;99.90
10051;DHT22;5065;46.942;7.432;2023-06-22T02:03:31;23.50;99.90
10051;DHT22;5065;46.942;7.432;2023-06-22T02:06:03;23.40;99.90
10051;DHT22;5065;46.942;7.432;2023-06-22T02:08:37;23.40;99.90
10051;DHT22;5065;46.942;7.432;2023-06-22T02:11:06;23.30;99.90
10051;DHT22;5065;46.942;7.432;2023-06-22T02:13:33;23.30;99.90
10051;DHT22;5065;46.942;7.432;2023-06-22T02:16:01;23.30;99.90
10051;DHT22;5065;46.942;7.432;2023-06-22T02:18:29;23.20;99.90
10051;DHT22;5065;46.942;7.432;2023-06-22T02:20:57;23.20;99.90
10051;DHT22;5065;46.942;7.432;2023-06-22T02:23:25;23.20;99.90
10051;DHT22;5065;46.942;7.432;2023-06-22T02:25:52;23.20;99.90
10051;DHT22;5065;46.942;7.432;2023-06-22T02:28:19;23.10;99.90
10051;DHT22;5065;46.942;7.432;2023-06-22T02:30:46;23.10;99.90
10051;DHT22;5065;46.942;7.432;2023-06-22T02:33:13;23.10;99.90
10051;DHT22;5065;46.942;7.432;2023-06-22T02:35:41;23.10;99.90
10051;DHT22;5065;46.942;7.432;2023-06-22T02:38:13;23.10;99.90
10051;DHT22;5065;46.942;7.432;2023-06-22T02:40:40;23.10;99.90
10051;DHT22;5065;46.942;7.432;2023-06-22T02:43:07;23.00;99.90
10051;DHT22;5065;46.942;7.432;2023-06-22T02:45:34;23.00;99.90
10051;DHT22;5065;46.942;7.432;2023-06-22T02:48:02;23.00;99.90
10051;DHT22;5065;46.942;7.432;2023-06-22T02:50:29;23.00;99.90
10051;DHT22;5065;46.942;7.432;2023-06-22T02:52:57;23.00;99.90
10051;DHT22;5065;46.942;7.432;2023-06-22T02:55:24;23.00;99.90
10051;DHT22;5065;46.942;7.432;2023-06-22T02:57:52;23.00;99.90
10051;DHT22;5065;46.942;7.432;2023-06-22T03:00:19;22.90;99.90
10051;DHT22;5065;46.942;7.432;2023-06-22T03:02:49;22.90;99.90
10051;DHT22;5065;46.942;7.432;2023-06-22T03:05:16;22.80;99.90
10051;DHT22;5065;46.942;7.432;2023-06-22T03:07:44;22.80;99.90
10051;DHT22;5065;46.942;7.432;2023-06-22T03:10:14;22.80;99.90
10051;DHT22;5065;46.942;7.432;2023-06-22T03:12:42;22.80;99.90
10051;DHT22;5065;46.942;7.432;2023-06-22T03:15:11;22.80;99.90
10051;DHT22;5065;46.942;7.432;2023-06-22T03:17:39;22.70;99.90
10051;DHT22;5065;46.942;7.432;2023-06-22T03:20:08;22.70;99.90
10051;DHT22;5065;46.942;7.432;2023-06-22T03:22:37;22.70;99.90
10051;DHT22;5065;46.942;7.432;2023-06-22T03:25:04;22.70;99.90
10051;DHT22;5065;46.942;7.432;2023-06-22T03:27:37;22.70;99.90
10051;DHT22;5065;46.942;7.432;2023-06-22T03:30:06;22.70;99.90
10051;DHT22;5065;46.942;7.432;2023-06-22T03:32:34;22.70;99.90
10051;DHT22;5065;46.942;7.432;2023-06-22T03:35:01;22.80;99.90
10051;DHT22;5065;46.942;7.432;2023-06-22T03:37:28;22.80;99.90
10051;DHT22;5065;46.942;7.432;2023-06-22T03:39:55;22.80;99.90
10051;DHT22;5065;46.942;7.432;2023-06-22T03:42:23;22.70;99.90
10051;DHT22;5065;46.942;7.432;2023-06-22T03:44:51;22.70;99.90
10051;DHT22;5065;46.942;7.432;2023-06-22T03:47:18;22.70;99.90
10051;DHT22;5065;46.942;7.432;2023-06-22T03:49:45;22.70;99.90
10051;DHT22;5065;46.942;7.432;2023-06-22T03:52:12;22.70;99.90
10051;DHT22;5065;46.942;7.432;2023-06-22T03:54:39;22.70;99.90
10051;DHT22;5065;46.942;7.432;2023-06-22T03:57:07;22.60;99.90
10051;DHT22;5065;46.942;7.432;2023-06-22T03:59:34;22.70;99.90
10051;DHT22;5065;46.942;7.432;2023-06-22T04:02:04;22.60;99.90
10051;DHT22;5065;46.942;7.432;2023-06-22T04:04:31;22.70;99.90
10051;DHT22;5065;46.942;7.432;2023-06-22T04:06:59;22.60;99.90
10051;DHT22;5065;46.942;7.432;2023-06-22T04:09:26;22.60;99.90
10051;DHT22;5065;46.942;7.432;2023-06-22T04:11:53;22.60;99.90
10051;DHT22;5065;46.942;7.432;2023-06-22T04:14:20;22.60;99.90
10051;DHT22;5065;46.942;7.432;2023-06-22T04:16:47;22.70;99.90
10051;DHT22;5065;46.942;7.432;2023-06-22T04:19:16;22.70;99.90
10051;DHT22;5065;46.942;7.432;2023-06-22T04:21:43;22.70;99.90
10051;DHT22;5065;46.942;7.432;2023-06-22T04:24:14;22.70;99.90
10051;DHT22;5065;46.942;7.432;2023-06-22T04:26:41;22.70;99.90
10051;DHT22;5065;46.942;7.432;2023-06-22T04:29:11;22.80;99.90
10051;DHT22;5065;46.942;7.432;2023-06-22T04:31:38;22.80;99.90
10051;DHT22;5065;46.942;7.432;2023-06-22T04:34:07;22.80;99.90
10051;DHT22;5065;46.942;7.432;2023-06-22T04:36:38;22.90;99.90
10051;DHT22;5065;46.942;7.432;2023-06-22T04:39:06;22.90;99.90
10051;DHT22;5065;46.942;7.432;2023-06-22T04:41:35;23.00;99.90
10051;DHT22;5065;46.942;7.432;2023-06-22T04:44:12;23.00;99.90
10051;DHT22;5065;46.942;7.432;2023-06-22T04:46:39;23.00;99.90
10051;DHT22;5065;46.942;7.432;2023-06-22T04:49:07;23.00;99.90
10051;DHT22;5065;46.942;7.432;2023-06-22T04:51:40;23.00;99.90
10051;DHT22;5065;46.942;7.432;2023-06-22T04:54:09;23.00;99.90
10051;DHT22;5065;46.942;7.432;2023-06-22T04:56:36;23.00;99.90
10051;DHT22;5065;46.942;7.432;2023-06-22T04:59:07;23.10;99.90
10051;DHT22;5065;46.942;7.432;2023-06-22T05:01:38;23.10;99.90
10051;DHT22;5065;46.942;7.432;2023-06-22T05:04:05;23.20;99.90
10051;DHT22;5065;46.942;7.432;2023-06-22T05:06:33;23.20;99.90
10051;DHT22;5065;46.942;7.432;2023-06-22T05:09:01;23.30;99.90
10051;DHT22;5065;46.942;7.432;2023-06-22T05:11:29;23.40;99.90
10051;DHT22;5065;46.942;7.432;2023-06-22T05:13:56;23.40;99.90
10051;DHT22;5065;46.942;7.432;2023-06-22T05:16:24;23.50;99.90
10051;DHT22;5065;46.942;7.432;2023-06-22T05:18:52;23.60;99.90
10051;DHT22;5065;46.942;7.432;2023-06-22T05:21:22;23.60;99.90
10051;DHT22;5065;46.942;7.432;2023-06-22T05:23:50;23.70;99.90
10051;DHT22;5065;46.942;7.432;2023-06-22T05:26:20;23.80;99.90
10051;DHT22;5065;46.942;7.432;2023-06-22T05:28:47;23.80;99.90
10051;DHT22;5065;46.942;7.432;2023-06-22T05:31:15;24.00;99.90
10051;DHT22;5065;46.942;7.432;2023-06-22T05:33:42;24.10;99.90
10051;DHT22;5065;46.942;7.432;2023-06-22T05:36:09;24.30;99.90
10051;DHT22;5065;46.942;7.432;2023-06-22T05:38:38;24.30;99.90
10051;DHT22;5065;46.942;7.432;2023-06-22T05:41:05;24.50;99.90
10051;DHT22;5065;46.942;7.432;2023-06-22T05:43:33;24.60;99.90
10051;DHT22;5065;46.942;7.432;2023-06-22T05:46:00;24.80;99.90
10051;DHT22;5065;46.942;7.432;2023-06-22T05:48:27;24.90;99.90
10051;DHT22;5065;46.942;7.432;2023-06-22T05:50:54;25.00;99.90
10051;DHT22;5065;46.942;7.432;2023-06-22T05:53:21;25.10;99.90
10051;DHT22;5065;46.942;7.432;2023-06-22T05:55:48;25.20;99.90
10051;DHT22;5065;46.942;7.432;2023-06-22T05:58:15;25.30;99.90
10051;DHT22;5065;46.942;7.432;2023-06-22T06:00:43;25.30;99.90
10051;DHT22;5065;46.942;7.432;2023-06-22T06:03:11;25.30;99.90
10051;DHT22;5065;46.942;7.432;2023-06-22T06:05:42;25.30;99.90
10051;DHT22;5065;46.942;7.432;2023-06-22T06:08:09;25.30;99.90
10051;DHT22;5065;46.942;7.432;2023-06-22T06:10:36;25.20;99.90
10051;DHT22;5065;46.942;7.432;2023-06-22T06:13:03;25.20;99.90
10051;DHT22;5065;46.942;7.432;2023-06-22T06:15:30;25.10;99.90
10051;DHT22;5065;46.942;7.432;2023-06-22T06:17:59;25.00;99.90
10051;DHT22;5065;46.942;7.432;2023-06-22T06:20:27;24.90;99.90
10051;DHT22;5065;46.942;7.432;2023-06-22T06:22:54;24.80;99.90
10051;DHT22;5065;46.942;7.432;2023-06-22T06:25:21;24.70;99.90
10051;DHT22;5065;46.942;7.432;2023-06-22T06:27:48;24.70;99.90
10051;DHT22;5065;46.942;7.432;2023-06-22T06:30:16;24.70;99.90
10051;DHT22;5065;46.942;7.432;2023-06-22T06:32:44;24.80;99.90
10051;DHT22;5065;46.942;7.432;2023-06-22T06:35:13;24.80;99.90
10051;DHT22;5065;46.942;7.432;2023-06-22T06:37:41;24.70;99.90
10051;DHT22;5065;46.942;7.432;2023-06-22T06:40:09;24.70;99.90
10051;DHT22;5065;46.942;7.432;2023-06-22T06:42:37;24.70;99.90
10051;DHT22;5065;46.942;7.432;2023-06-22T06:45:06;24.70;99.90
10051;DHT22;5065;46.942;7.432;2023-06-22T06:47:33;24.70;99.90
10051;DHT22;5065;46.942;7.432;2023-06-22T06:49:59;24.60;99.90
10051;DHT22;5065;46.942;7.432;2023-06-22T06:52:28;24.60;99.90
10051;DHT22;5065;46.942;7.432;2023-06-22T06:54:55;24.60;99.90
10051;DHT22;5065;46.942;7.432;2023-06-22T06:57:21;24.60;99.90
10051;DHT22;5065;46.942;7.432;2023-06-22T06:59:49;24.60;99.90
10051;DHT22;5065;46.942;7.432;2023-06-22T07:02:16;24.60;99.90
10051;DHT22;5065;46.942;7.432;2023-06-22T07:04:43;24.70;99.90
10051;DHT22;5065;46.942;7.432;2023-06-22T07:07:10;24.70;99.90
10051;DHT22;5065;46.942;7.432;2023-06-22T07:09:39;24.70;99.90
10051;DHT22;5065;46.942;7.432;2023-06-22T07:12:06;24.70;99.90
10051;DHT22;5065;46.942;7.432;2023-06-22T07:14:33;24.60;99.90
10051;DHT22;5065;46.942;7.432;2023-06-22T07:16:59;24.60;99.90
10051;DHT22;5065;46.942;7.432;2023-06-22T07:19:27;24.70;99.90
10051;DHT22;5065;46.942;7.432;2023-06-22T07:21:54;24.70;99.90
10051;DHT22;5065;46.942;7.432;2023-06-22T07:24:21;24.70;99.90
10051;DHT22;5065;46.942;7.432;2023-06-22T07:26:50;24.70;99.90
10051;DHT22;5065;46.942;7.432;2023-06-22T07:29:17;24.70;99.90
10051;DHT22;5065;46.942;7.432;2023-06-22T07:31:45;24.60;99.90
10051;DHT22;5065;46.942;7.432;2023-06-22T07:34:12;24.60;99.90
10051;DHT22;5065;46.942;7.432;2023-06-22T07:36:39;24.60;99.90
10051;DHT22;5065;46.942;7.432;2023-06-22T07:39:06;24.60;99.90
10051;DHT22;5065;46.942;7.432;2023-06-22T07:41:33;24.70;99.90
10051;DHT22;5065;46.942;7.432;2023-06-22T07:44:01;24.80;99.90
10051;DHT22;5065;46.942;7.432;2023-06-22T07:46:28;24.80;99.90
10051;DHT22;5065;46.942;7.432;2023-06-22T07:48:55;24.80;99.90
10051;DHT22;5065;46.942;7.432;2023-06-22T07:51:22;24.80;99.90
10051;DHT22;5065;46.942;7.432;2023-06-22T07:53:49;24.80;99.90
10051;DHT22;5065;46.942;7.432;2023-06-22T07:56:16;24.70;99.90
10051;DHT22;5065;46.942;7.432;2023-06-22T07:58:44;24.60;99.90
10051;DHT22;5065;46.942;7.432;2023-06-22T08:01:14;24.50;99.90
10051;DHT22;5065;46.942;7.432;2023-06-22T08:03:41;24.50;99.90
10051;DHT22;5065;46.942;7.432;2023-06-22T08:06:07;24.50;99.90
10051;DHT22;5065;46.942;7.432;2023-06-22T08:08:35;24.50;99.90
10051;DHT22;5065;46.942;7.432;2023-06-22T08:11:02;24.50;99.90
10051;DHT22;5065;46.942;7.432;2023-06-22T08:13:29;24.40;99.90
10051;DHT22;5065;46.942;7.432;2023-06-22T08:15:55;24.30;99.90
10051;DHT22;5065;46.942;7.432;2023-06-22T08:18:24;24.30;99.90
10051;DHT22;5065;46.942;7.432;2023-06-22T08:20:51;24.20;99.90
10051;DHT22;5065;46.942;7.432;2023-06-22T08:23:18;24.30;99.90
10051;DHT22;5065;46.942;7.432;2023-06-22T08:25:45;24.30;99.90
10051;DHT22;5065;46.942;7.432;2023-06-22T08:28:13;24.30;99.90
10051;DHT22;5065;46.942;7.432;2023-06-22T08:30:40;24.30;99.90
10051;DHT22;5065;46.942;7.432;2023-06-22T08:33:07;24.40;99.90
10051;DHT22;5065;46.942;7.432;2023-06-22T08:35:35;24.40;99.90
10051;DHT22;5065;46.942;7.432;2023-06-22T08:38:02;24.40;99.90
10051;DHT22;5065;46.942;7.432;2023-06-22T08:40:29;24.40;99.90
10051;DHT22;5065;46.942;7.432;2023-06-22T08:42:56;24.40;99.90
10051;DHT22;5065;46.942;7.432;2023-06-22T08:45:23;24.30;99.90
10051;DHT22;5065;46.942;7.432;2023-06-22T08:47:50;24.30;99.90
10051;DHT22;5065;46.942;7.432;2023-06-22T08:50:17;24.40;99.90
10051;DHT22;5065;46.942;7.432;2023-06-22T08:52:45;24.30;99.90
10051;DHT22;5065;46.942;7.432;2023-06-22T08:55:13;24.30;99.90
10051;DHT22;5065;46.942;7.432;2023-06-22T08:57:40;24.30;99.90
10051;DHT22;5065;46.942;7.432;2023-06-22T09:00:08;24.40;99.90
10051;DHT22;5065;46.942;7.432;2023-06-22T09:02:42;24.50;99.90
10051;DHT22;5065;46.942;7.432;2023-06-22T09:05:09;24.50;99.90
10051;DHT22;5065;46.942;7.432;2023-06-22T09:07:36;24.60;99.90
10051;DHT22;5065;46.942;7.432;2023-06-22T09:10:05;24.60;99.90
10051;DHT22;5065;46.942;7.432;2023-06-22T09:12:32;24.50;99.90
10051;DHT22;5065;46.942;7.432;2023-06-22T09:14:59;24.60;99.90
10051;DHT22;5065;46.942;7.432;2023-06-22T09:17:28;24.50;99.90
10051;DHT22;5065;46.942;7.432;2023-06-22T09:19:55;24.60;99.90
10051;DHT22;5065;46.942;7.432;2023-06-22T09:22:23;24.50;99.90
10051;DHT22;5065;46.942;7.432;2023-06-22T09:24:54;24.60;99.90
10051;DHT22;5065;46.942;7.432;2023-06-22T09:27:22;24.60;99.90
10051;DHT22;5065;46.942;7.432;2023-06-22T09:29:49;24.60;99.90
10051;DHT22;5065;46.942;7.432;2023-06-22T09:32:16;24.70;99.90
10051;DHT22;5065;46.942;7.432;2023-06-22T09:34:43;24.60;99.90
10051;DHT22;5065;46.942;7.432;2023-06-22T09:37:10;24.80;99.90
10051;DHT22;5065;46.942;7.432;2023-06-22T09:39:37;24.80;99.90
10051;DHT22;5065;46.942;7.432;2023-06-22T09:42:04;24.80;99.90
10051;DHT22;5065;46.942;7.432;2023-06-22T09:44:33;24.80;99.90
10051;DHT22;5065;46.942;7.432;2023-06-22T09:47:00;24.90;99.90
10051;DHT22;5065;46.942;7.432;2023-06-22T09:49:27;24.90;99.90
10051;DHT22;5065;46.942;7.432;2023-06-22T09:51:54;25.00;99.90
10051;DHT22;5065;46.942;7.432;2023-06-22T09:54:20;25.00;99.90
10051;DHT22;5065;46.942;7.432;2023-06-22T09:56:47;25.00;99.90
10051;DHT22;5065;46.942;7.432;2023-06-22T09:59:14;25.10;99.90
10051;DHT22;5065;46.942;7.432;2023-06-22T10:01:42;25.10;99.90
10051;DHT22;5065;46.942;7.432;2023-06-22T10:04:09;25.10;99.90
10051;DHT22;5065;46.942;7.432;2023-06-22T10:06:36;25.10;99.90
10051;DHT22;5065;46.942;7.432;2023-06-22T10:09:06;25.10;99.90
10051;DHT22;5065;46.942;7.432;2023-06-22T10:11:33;25.10;99.90
10051;DHT22;5065;46.942;7.432;2023-06-22T10:14:00;25.10;99.90
10051;DHT22;5065;46.942;7.432;2023-06-22T10:16:30;25.10;99.90
10051;DHT22;5065;46.942;7.432;2023-06-22T10:18:58;25.10;99.90
10051;DHT22;5065;46.942;7.432;2023-06-22T10:21:25;25.10;99.90
10051;DHT22;5065;46.942;7.432;2023-06-22T10:23:53;25.10;99.90
10051;DHT22;5065;46.942;7.432;2023-06-22T10:26:20;25.10;99.90
10051;DHT22;5065;46.942;7.432;2023-06-22T10:28:47;25.10;99.90
10051;DHT22;5065;46.942;7.432;2023-06-22T10:31:14;25.10;99.90
10051;DHT22;5065;46.942;7.432;2023-06-22T10:33:42;25.10;99.90
10051;DHT22;5065;46.942;7.432;2023-06-22T10:36:11;25.10;99.90
10051;DHT22;5065;46.942;7.432;2023-06-22T10:38:37;25.10;99.90
10051;DHT22;5065;46.942;7.432;2023-06-22T10:41:04;25.10;99.90
10051;DHT22;5065;46.942;7.432;2023-06-22T10:43:31;25.10;99.90
10051;DHT22;5065;46.942;7.432;2023-06-22T10:45:58;25.10;99.90
10051;DHT22;5065;46.942;7.432;2023-06-22T10:48:25;25.20;99.90
10051;DHT22;5065;46.942;7.432;2023-06-22T10:50:52;25.20;99.90
10051;DHT22;5065;46.942;7.432;2023-06-22T10:53:21;25.30;99.90
10051;DHT22;5065;46.942;7.432;2023-06-22T10:55:48;25.30;99.90
10051;DHT22;5065;46.942;7.432;2023-06-22T10:58:18;25.40;99.90
10051;DHT22;5065;46.942;7.432;2023-06-22T11:01:08;25.50;99.90
10051;DHT22;5065;46.942;7.432;2023-06-22T11:03:35;25.50;99.90
10051;DHT22;5065;46.942;7.432;2023-06-22T11:06:01;25.60;99.90
10051;DHT22;5065;46.942;7.432;2023-06-22T11:08:30;25.70;99.90
10051;DHT22;5065;46.942;7.432;2023-06-22T11:10:56;25.70;99.90
10051;DHT22;5065;46.942;7.432;2023-06-22T11:13:23;25.80;99.90
10051;DHT22;5065;46.942;7.432;2023-06-22T11:15:50;25.90;99.90
10051;DHT22;5065;46.942;7.432;2023-06-22T11:18:17;25.90;99.90
10051;DHT22;5065;46.942;7.432;2023-06-22T11:20:44;26.00;99.90
10051;DHT22;5065;46.942;7.432;2023-06-22T11:23:12;26.10;99.90
10051;DHT22;5065;46.942;7.432;2023-06-22T11:25:41;26.10;99.90
10051;DHT22;5065;46.942;7.432;2023-06-22T11:28:08;26.20;99.90
10051;DHT22;5065;46.942;7.432;2023-06-22T11:30:35;26.20;99.90
10051;DHT22;5065;46.942;7.432;2023-06-22T11:33:02;26.20;99.90
10051;DHT22;5065;46.942;7.432;2023-06-22T11:35:29;26.20;99.90
10051;DHT22;5065;46.942;7.432;2023-06-22T11:37:56;26.20;99.90
10051;DHT22;5065;46.942;7.432;2023-06-22T11:40:23;26.20;99.90
10051;DHT22;5065;46.942;7.432;2023-06-22T11:42:52;26.20;99.90
10051;DHT22;5065;46.942;7.432;2023-06-22T11:45:18;26.20;99.90
10051;DHT22;5065;46.942;7.432;2023-06-22T11:47:45;26.20;99.90
10051;DHT22;5065;46.942;7.432;2023-06-22T11:50:31;26.20;99.90
10051;DHT22;5065;46.942;7.432;2023-06-22T11:53:01;26.20;99.90
10051;DHT22;5065;46.942;7.432;2023-06-22T11:55:28;26.10;99.90
10051;DHT22;5065;46.942;7.432;2023-06-22T11:57:55;26.10;99.90
10051;DHT22;5065;46.942;7.432;2023-06-22T12:00:24;26.00;99.90
10051;DHT22;5065;46.942;7.432;2023-06-22T12:02:51;26.10;99.90
10051;DHT22;5065;46.942;7.432;2023-06-22T12:05:18;26.10;99.90
10051;DHT22;5065;46.942;7.432;2023-06-22T12:07:47;26.10;99.90
10051;DHT22;5065;46.942;7.432;2023-06-22T12:10:14;26.10;99.90
10051;DHT22;5065;46.942;7.432;2023-06-22T12:12:41;26.10;99.90
10051;DHT22;5065;46.942;7.432;2023-06-22T12:15:08;26.20;99.90
10051;DHT22;5065;46.942;7.432;2023-06-22T12:17:35;26.20;99.90
10051;DHT22;5065;46.942;7.432;2023-06-22T12:20:02;26.20;99.90
10051;DHT22;5065;46.942;7.432;2023-06-22T12:22:30;26.30;99.90
10051;DHT22;5065;46.942;7.432;2023-06-22T12:24:59;26.30;99.90
10051;DHT22;5065;46.942;7.432;2023-06-22T12:27:26;26.30;99.90
10051;DHT22;5065;46.942;7.432;2023-06-22T12:29:53;26.30;99.90
10051;DHT22;5065;46.942;7.432;2023-06-22T12:32:19;26.30;99.90
10051;DHT22;5065;46.942;7.432;2023-06-22T12:34:46;26.40;99.90
10051;DHT22;5065;46.942;7.432;2023-06-22T12:37:13;26.30;99.90
10051;DHT22;5065;46.942;7.432;2023-06-22T12:39:40;26.30;99.90
10051;DHT22;5065;46.942;7.432;2023-06-22T12:42:09;26.30;99.90
10051;DHT22;5065;46.942;7.432;2023-06-22T12:44:37;26.30;99.90
10051;DHT22;5065;46.942;7.432;2023-06-22T12:47:07;26.20;99.90
10051;DHT22;5065;46.942;7.432;2023-06-22T12:49:34;26.20;99.90
10051;DHT22;5065;46.942;7.432;2023-06-22T12:52:01;26.20;99.90
10051;DHT22;5065;46.942;7.432;2023-06-22T12:54:28;26.10;99.90
10051;DHT22;5065;46.942;7.432;2023-06-22T12:56:56;26.10;99.90
10051;DHT22;5065;46.942;7.432;2023-06-22T12:59:24;26.10;99.90
10051;DHT22;5065;46.942;7.432;2023-06-22T13:01:51;26.00;99.90
10051;DHT22;5065;46.942;7.432;2023-06-22T13:04:18;26.00;99.90
10051;DHT22;5065;46.942;7.432;2023-06-22T13:06:45;26.00;99.90
10051;DHT22;5065;46.942;7.432;2023-06-22T13:09:13;25.90;99.90
10051;DHT22;5065;46.942;7.432;2023-06-22T13:11:40;25.80;99.90
10051;DHT22;5065;46.942;7.432;2023-06-22T13:14:07;25.70;99.90
10051;DHT22;5065;46.942;7.432;2023-06-22T13:16:36;25.60;99.90
10051;DHT22;5065;46.942;7.432;2023-06-22T13:19:04;25.60;99.90
10051;DHT22;5065;46.942;7.432;2023-06-22T13:21:31;25.50;99.90
10051;DHT22;5065;46.942;7.432;2023-06-22T13:23:59;25.50;99.90
10051;DHT22;5065;46.942;7.432;2023-06-22T13:26:26;25.50;99.90
10051;DHT22;5065;46.942;7.432;2023-06-22T13:28:54;25.50;99.90
10051;DHT22;5065;46.942;7.432;2023-06-22T13:31:21;25.50;99.90
10051;DHT22;5065;46.942;7.432;2023-06-22T13:33:49;25.50;99.90
10051;DHT22;5065;46.942;7.432;2023-06-22T13:36:17;25.50;99.90
10051;DHT22;5065;46.942;7.432;2023-06-22T13:38:45;25.50;99.90
10051;DHT22;5065;46.942;7.432;2023-06-22T13:41:12;25.40;99.90
10051;DHT22;5065;46.942;7.432;2023-06-22T13:43:39;25.40;99.90
10051;DHT22;5065;46.942;7.432;2023-06-22T13:46:06;25.40;99.90
10051;DHT22;5065;46.942;7.432;2023-06-22T13:48:33;25.30;99.90
10051;DHT22;5065;46.942;7.432;2023-06-22T13:51:01;25.20;99.90
10051;DHT22;5065;46.942;7.432;2023-06-22T13:53:28;25.20;99.90
10051;DHT22;5065;46.942;7.432;2023-06-22T13:55:55;25.20;99.90
10051;DHT22;5065;46.942;7.432;2023-06-22T13:58:22;25.10;99.90
10051;DHT22;5065;46.942;7.432;2023-06-22T14:00:50;25.10;99.90
10051;DHT22;5065;46.942;7.432;2023-06-22T14:03:17;25.10;99.90
10051;DHT22;5065;46.942;7.432;2023-06-22T14:05:44;25.00;99.90
10051;DHT22;5065;46.942;7.432;2023-06-22T14:08:12;24.90;99.90
10051;DHT22;5065;46.942;7.432;2023-06-22T14:10:40;24.80;99.90
10051;DHT22;5065;46.942;7.432;2023-06-22T14:13:07;24.80;99.90
10051;DHT22;5065;46.942;7.432;2023-06-22T14:15:34;24.80;99.90
10051;DHT22;5065;46.942;7.432;2023-06-22T14:18:01;24.70;99.90
10051;DHT22;5065;46.942;7.432;2023-06-22T14:20:28;24.50;99.90
10051;DHT22;5065;46.942;7.432;2023-06-22T14:22:55;24.40;99.90
10051;DHT22;5065;46.942;7.432;2023-06-22T14:25:23;24.30;99.90
10051;DHT22;5065;46.942;7.432;2023-06-22T14:27:50;24.30;99.90
10051;DHT22;5065;46.942;7.432;2023-06-22T14:30:17;24.20;99.90
10051;DHT22;5065;46.942;7.432;2023-06-22T14:32:44;24.10;99.90
10051;DHT22;5065;46.942;7.432;2023-06-22T14:35:11;24.10;99.90
10051;DHT22;5065;46.942;7.432;2023-06-22T14:37:38;24.10;99.90
10051;DHT22;5065;46.942;7.432;2023-06-22T14:40:08;24.10;99.90
10051;DHT22;5065;46.942;7.432;2023-06-22T14:42:36;24.00;99.90
10051;DHT22;5065;46.942;7.432;2023-06-22T14:45:06;24.00;99.90
10051;DHT22;5065;46.942;7.432;2023-06-22T14:47:35;24.00;99.90
10051;DHT22;5065;46.942;7.432;2023-06-22T14:50:03;23.80;99.90
10051;DHT22;5065;46.942;7.432;2023-06-22T14:52:30;23.80;99.90
10051;DHT22;5065;46.942;7.432;2023-06-22T14:54:57;23.70;99.90
10051;DHT22;5065;46.942;7.432;2023-06-22T14:57:25;23.60;99.90
10051;DHT22;5065;46.942;7.432;2023-06-22T14:59:53;23.60;99.90
10051;DHT22;5065;46.942;7.432;2023-06-22T15:02:21;23.60;99.90
10051;DHT22;5065;46.942;7.432;2023-06-22T15:04:48;23.60;99.90
10051;DHT22;5065;46.942;7.432;2023-06-22T15:07:15;23.60;99.90
10051;DHT22;5065;46.942;7.432;2023-06-22T15:09:42;23.60;99.90
10051;DHT22;5065;46.942;7.432;2023-06-22T15:12:11;23.60;99.90
10051;DHT22;5065;46.942;7.432;2023-06-22T15:14:39;23.60;99.90
10051;DHT22;5065;46.942;7.432;2023-06-22T15:17:08;23.50;99.90
10051;DHT22;5065;46.942;7.432;2023-06-22T15:19:35;23.50;99.90
10051;DHT22;5065;46.942;7.432;2023-06-22T15:22:04;23.50;99.90
10051;DHT22;5065;46.942;7.432;2023-06-22T15:24:32;23.50;99.90
10051;DHT22;5065;46.942;7.432;2023-06-22T15:26:59;23.50;99.90
10051;DHT22;5065;46.942;7.432;2023-06-22T15:29:26;23.50;99.90
10051;DHT22;5065;46.942;7.432;2023-06-22T15:31:55;23.50;99.90
10051;DHT22;5065;46.942;7.432;2023-06-22T15:34:24;23.50;99.90
10051;DHT22;5065;46.942;7.432;2023-06-22T15:36:51;23.50;99.90
10051;DHT22;5065;46.942;7.432;2023-06-22T15:39:18;23.60;99.90
10051;DHT22;5065;46.942;7.432;2023-06-22T15:41:45;23.50;99.90
10051;DHT22;5065;46.942;7.432;2023-06-22T15:44:12;23.50;99.90
10051;DHT22;5065;46.942;7.432;2023-06-22T15:46:40;23.50;99.90
10051;DHT22;5065;46.942;7.432;2023-06-22T15:49:07;23.40;99.90